sensor_id;sensor_type;location;lat;lon;timestamp;noise_LAeq;noise_LA_min;noise_LA_max;noise_LA01;noise_LA95
76217;Laerm;65010;50.190;18.930;2023-04-08T00:00:27;38.36;36.43;43.76;;
76217;Laerm;65010;50.190;18.930;2023-04-08T00:03:33;44.39;36.15;64.14;;
76217;Laerm;65010;50.190;18.930;2023-04-08T00:06:40;38.33;36.26;40.33;;
76217;Laerm;65010;50.190;18.930;2023-04-08T00:09:45;38.19;36.54;40.47;;
76217;Laerm;65010;50.190;18.930;2023-04-08T00:12:52;39.27;37.05;41.98;;
76217;Laerm;65010;50.190;18.930;2023-04-08T00:16:01;39.86;37.79;53.69;;
76217;Laerm;65010;50.190;18.930;2023-04-08T00:19:08;39.97;37.69;42.50;;
76217;Laerm;65010;50.190;18.930;2023-04-08T00:22:14;38.26;34.83;54.78;;
76217;Laerm;65010;50.190;18.930;2023-04-08T00:25:20;35.76;34.54;38.94;;
76217;Laerm;65010;50.190;18.930;2023-04-08T00:28:27;37.77;34.78;42.19;;
76217;Laerm;65010;50.190;18.930;2023-04-08T00:31:37;40.07;37.17;42.94;;
76217;Laerm;65010;50.190;18.930;2023-04-08T00:34:43;40.57;36.77;43.64;;
76217;Laerm;65010;50.190;18.930;2023-04-08T00:37:50;37.70;35.84;39.61;;
76217;Laerm;65010;50.190;18.930;2023-04-08T00:40:55;38.90;36.41;50.51;;
76217;Laerm;65010;50.190;18.930;2023-04-08T00:44:02;39.36;37.32;42.86;;
76217;Laerm;65010;50.190;18.930;2023-04-08T00:47:11;39.33;37.49;41.66;;
76217;Laerm;65010;50.190;18.930;2023-04-08T00:50:18;46.78;37.09;70.92;;
76217;Laerm;65010;50.190;18.930;2023-04-08T00:53:24;39.39;37.52;42.64;;
76217;Laerm;65010;50.190;18.930;2023-04-08T00:56:32;39.30;37.58;41.46;;
76217;Laerm;65010;50.190;18.930;2023-04-08T00:59:40;39.40;37.46;41.63;;
76217;Laerm;65010;50.190;18.930;2023-04-08T01:03:05;39.42;37.63;41.90;;
76217;Laerm;65010;50.190;18.930;2023-04-08T01:06:29;39.44;37.34;41.84;;
76217;Laerm;65010;50.190;18.930;2023-04-08T01:09:44;39.53;37.39;41.54;;
76217;Laerm;65010;50.190;18.930;2023-04-08T01:12:56;39.29;37.19;42.19;;
76217;Laerm;65010;50.190;18.930;2023-04-08T01:16:04;39.34;36.92;51.42;;
76217;Laerm;65010;50.190;18.930;2023-04-08T01:19:25;44.67;37.29;65.95;;
76217;Laerm;65010;50.190;18.930;2023-04-08T01:22:54;39.13;37.21;41.27;;
76217;Laerm;65010;50.190;18.930;2023-04-08T01:26:05;39.15;37.07;41.55;;
76217;Laerm;65010;50.190;18.930;2023-04-08T01:29:13;39.35;36.94;41.52;;
76217;Laerm;65010;50.190;18.930;2023-04-08T01:32:22;39.43;37.38;41.43;;
76217;Laerm;65010;50.190;18.930;2023-04-08T01:35:31;39.93;37.48;48.72;;
76217;Laerm;65010;50.190;18.930;2023-04-08T01:38:38;38.82;36.88;41.55;;
76217;Laerm;65010;50.190;18.930;2023-04-08T01:41:50;38.48;36.79;40.11;;
76217;Laerm;65010;50.190;18.930;2023-04-08T01:45:03;39.26;36.76;42.05;;
76217;Laerm;65010;50.190;18.930;2023-04-08T01:48:13;39.60;37.78;41.79;;
76217;Laerm;65010;50.190;18.930;2023-04-08T01:51:22;39.36;37.51;41.59;;
76217;Laerm;65010;50.190;18.930;2023-04-08T01:54:28;47.66;37.51;69.73;;
76217;Laerm;65010;50.190;18.930;2023-04-08T01:57:40;39.61;37.45;43.39;;
76217;Laerm;65010;50.190;18.930;2023-04-08T02:00:53;39.38;37.21;43.57;;
76217;Laerm;65010;50.190;18.930;2023-04-08T02:04:02;39.29;37.16;41.45;;
76217;Laerm;65010;50.190;18.930;2023-04-08T02:07:08;38.01;35.99;41.15;;
76217;Laerm;65010;50.190;18.930;2023-04-08T02:10:16;35.94;34.33;42.20;;
76217;Laerm;65010;50.190;18.930;2023-04-08T02:13:25;37.12;34.05;41.86;;
76217;Laerm;65010;50.190;18.930;2023-04-08T02:16:39;38.51;36.82;40.29;;
76217;Laerm;65010;50.190;18.930;2023-04-08T02:20:05;38.48;36.78;40.43;;
76217;Laerm;65010;50.190;18.930;2023-04-08T02:23:19;39.78;37.07;41.99;;
76217;Laerm;65010;50.190;18.930;2023-04-08T02:26:26;39.98;37.98;42.14;;
76217;Laerm;65010;50.190;18.930;2023-04-08T02:29:36;40.00;38.06;42.92;;
76217;Laerm;65010;50.190;18.930;2023-04-08T02:32:47;39.67;37.55;43.22;;
76217;Laerm;65010;50.190;18.930;2023-04-08T02:35:55;35.61;33.73;41.83;;
76217;Laerm;65010;50.190;18.930;2023-04-08T02:39:02;35.10;33.60;37.61;;
76217;Laerm;65010;50.190;18.930;2023-04-08T02:42:08;35.69;34.07;47.21;;
76217;Laerm;65010;50.190;18.930;2023-04-08T02:45:17;35.67;34.41;38.94;;
76217;Laerm;65010;50.190;18.930;2023-04-08T02:48:25;35.98;34.58;40.92;;
76217;Laerm;65010;50.190;18.930;2023-04-08T02:51:31;36.22;34.58;51.51;;
76217;Laerm;65010;50.190;18.930;2023-04-08T02:54:37;36.13;34.69;43.51;;
76217;Laerm;65010;50.190;18.930;2023-04-08T02:57:43;44.84;34.63;64.73;;
76217;Laerm;65010;50.190;18.930;2023-04-08T03:00:52;38.58;36.72;41.44;;
76217;Laerm;65010;50.190;18.930;2023-04-08T03:03:58;38.46;36.36;47.37;;
76217;Laerm;65010;50.190;18.930;2023-04-08T03:07:05;39.88;37.82;42.73;;
76217;Laerm;65010;50.190;18.930;2023-04-08T03:10:11;40.01;37.79;44.09;;
76217;Laerm;65010;50.190;18.930;2023-04-08T03:13:17;40.19;38.06;43.71;;
76217;Laerm;65010;50.190;18.930;2023-04-08T03:16:26;40.12;37.46;45.60;;
76217;Laerm;65010;50.190;18.930;2023-04-08T03:19:32;39.86;37.87;44.45;;
76217;Laerm;65010;50.190;18.930;2023-04-08T03:22:38;43.79;37.75;56.38;;
76217;Laerm;65010;50.190;18.930;2023-04-08T03:25:44;42.15;38.04;53.33;;
76217;Laerm;65010;50.190;18.930;2023-04-08T03:28:51;44.98;37.62;63.40;;
76217;Laerm;65010;50.190;18.930;2023-04-08T03:32:00;40.61;38.03;50.70;;
76217;Laerm;65010;50.190;18.930;2023-04-08T03:35:08;40.29;38.03;45.75;;
76217;Laerm;65010;50.190;18.930;2023-04-08T03:38:14;43.65;38.05;60.78;;
76217;Laerm;65010;50.190;18.930;2023-04-08T03:41:20;41.20;38.29;49.70;;
76217;Laerm;65010;50.190;18.930;2023-04-08T03:44:26;43.00;38.04;57.31;;
76217;Laerm;65010;50.190;18.930;2023-04-08T03:47:35;41.35;37.99;54.14;;
76217;Laerm;65010;50.190;18.930;2023-04-08T03:50:41;46.66;38.11;64.87;;
76217;Laerm;65010;50.190;18.930;2023-04-08T03:53:47;41.26;38.11;64.10;;
76217;Laerm;65010;50.190;18.930;2023-04-08T03:56:54;41.49;37.92;51.67;;
76217;Laerm;65010;50.190;18.930;2023-04-08T04:00:00;40.77;37.99;49.53;;
76217;Laerm;65010;50.190;18.930;2023-04-08T04:03:16;43.47;38.10;63.60;;
76217;Laerm;65010;50.190;18.930;2023-04-08T04:06:23;41.46;37.95;57.26;;
76217;Laerm;65010;50.190;18.930;2023-04-08T04:09:30;41.83;38.04;59.20;;
76217;Laerm;65010;50.190;18.930;2023-04-08T04:12:35;44.49;38.01;59.55;;
76217;Laerm;65010;50.190;18.930;2023-04-08T04:15:42;40.81;38.18;51.02;;
76217;Laerm;65010;50.190;18.930;2023-04-08T04:18:51;40.27;38.15;45.08;;
76217;Laerm;65010;50.190;18.930;2023-04-08T04:21:58;46.04;38.19;63.97;;
76217;Laerm;65010;50.190;18.930;2023-04-08T04:25:05;40.42;38.08;45.29;;
76217;Laerm;65010;50.190;18.930;2023-04-08T04:28:11;48.44;38.37;69.00;;
76217;Laerm;65010;50.190;18.930;2023-04-08T04:31:18;41.28;38.38;50.13;;
76217;Laerm;65010;50.190;18.930;2023-04-08T04:34:28;41.07;38.00;53.87;;
76217;Laerm;65010;50.190;18.930;2023-04-08T04:37:33;44.27;38.17;64.00;;
76217;Laerm;65010;50.190;18.930;2023-04-08T04:40:40;40.42;38.08;49.28;;
76217;Laerm;65010;50.190;18.930;2023-04-08T04:43:45;43.80;38.38;61.13;;
76217;Laerm;65010;50.190;18.930;2023-04-08T04:46:52;45.39;38.06;62.44;;
76217;Laerm;65010;50.190;18.930;2023-04-08T04:50:00;44.86;37.75;63.25;;
76217;Laerm;65010;50.190;18.930;2023-04-08T04:53:07;41.29;38.12;61.40;;
76217;Laerm;65010;50.190;18.930;2023-04-08T04:56:12;43.42;37.97;61.50;;
76217;Laerm;65010;50.190;18.930;2023-04-08T04:59:19;41.46;37.71;55.00;;
76217;Laerm;65010;50.190;18.930;2023-04-08T05:02:25;46.75;38.48;66.43;;
76217;Laerm;65010;50.190;18.930;2023-04-08T05:05:34;44.38;38.32;62.20;;
76217;Laerm;65010;50.190;18.930;2023-04-08T05:08:40;42.87;38.52;56.61;;
76217;Laerm;65010;50.190;18.930;2023-04-08T05:11:47;43.49;38.37;61.86;;
76217;Laerm;65010;50.190;18.930;2023-04-08T05:14:53;40.92;38.48;54.51;;
76217;Laerm;65010;50.190;18.930;2023-04-08T05:17:59;42.68;38.56;58.09;;
76217;Laerm;65010;50.190;18.930;2023-04-08T05:21:08;43.07;38.54;57.98;;
76217;Laerm;65010;50.190;18.930;2023-04-08T05:24:14;46.48;38.60;63.87;;
76217;Laerm;65010;50.190;18.930;2023-04-08T05:27:20;48.90;38.33;69.73;;
76217;Laerm;65010;50.190;18.930;2023-04-08T05:30:26;45.76;37.58;66.27;;
76217;Laerm;65010;50.190;18.930;2023-04-08T05:33:32;45.08;37.75;59.69;;
76217;Laerm;65010;50.190;18.930;2023-04-08T05:36:41;46.21;38.89;64.46;;
76217;Laerm;65010;50.190;18.930;2023-04-08T05:39:47;41.18;38.73;50.92;;
76217;Laerm;65010;50.190;18.930;2023-04-08T05:42:53;43.74;38.60;60.88;;
76217;Laerm;65010;50.190;18.930;2023-04-08T05:45:59;44.06;38.42;63.47;;
76217;Laerm;65010;50.190;18.930;2023-04-08T05:49:05;43.01;38.65;59.59;;
76217;Laerm;65010;50.190;18.930;2023-04-08T05:52:13;44.95;38.84;68.15;;
76217;Laerm;65010;50.190;18.930;2023-04-08T05:55:20;47.83;38.29;63.33;;
76217;Laerm;65010;50.190;18.930;2023-04-08T05:58:26;43.96;38.72;61.62;;
76217;Laerm;65010;50.190;18.930;2023-04-08T06:01:32;50.15;37.51;66.05;;
76217;Laerm;65010;50.190;18.930;2023-04-08T06:04:38;48.48;37.12;64.19;;
76217;Laerm;65010;50.190;18.930;2023-04-08T06:07:47;45.86;37.52;59.98;;
76217;Laerm;65010;50.190;18.930;2023-04-08T06:10:53;45.25;38.33;61.97;;
76217;Laerm;65010;50.190;18.930;2023-04-08T06:13:59;48.74;38.96;64.75;;
76217;Laerm;65010;50.190;18.930;2023-04-08T06:17:05;50.06;38.80;67.76;;
76217;Laerm;65010;50.190;18.930;2023-04-08T06:20:11;45.83;38.43;61.09;;
76217;Laerm;65010;50.190;18.930;2023-04-08T06:23:20;43.55;38.40;62.09;;
76217;Laerm;65010;50.190;18.930;2023-04-08T06:26:28;46.99;38.47;62.74;;
76217;Laerm;65010;50.190;18.930;2023-04-08T06:29:34;47.04;38.90;66.24;;
76217;Laerm;65010;50.190;18.930;2023-04-08T06:32:42;50.04;39.07;68.28;;
76217;Laerm;65010;50.190;18.930;2023-04-08T06:35:48;47.13;38.57;63.24;;
76217;Laerm;65010;50.190;18.930;2023-04-08T06:38:57;48.14;38.43;65.86;;
76217;Laerm;65010;50.190;18.930;2023-04-08T06:42:03;46.11;38.46;61.92;;
76217;Laerm;65010;50.190;18.930;2023-04-08T06:45:43;47.84;38.25;64.22;;
76217;Laerm;65010;50.190;18.930;2023-04-08T06:48:48;47.97;38.98;62.14;;
76217;Laerm;65010;50.190;18.930;2023-04-08T06:51:55;48.55;38.73;63.30;;
76217;Laerm;65010;50.190;18.930;2023-04-08T06:55:05;48.93;38.70;66.41;;
76217;Laerm;65010;50.190;18.930;2023-04-08T06:58:11;45.67;38.59;62.34;;
76217;Laerm;65010;50.190;18.930;2023-04-08T07:01:17;51.33;38.55;67.14;;
76217;Laerm;65010;50.190;18.930;2023-04-08T07:04:24;47.35;38.52;65.84;;
76217;Laerm;65010;50.190;18.930;2023-04-08T07:07:30;46.11;38.56;66.06;;
76217;Laerm;65010;50.190;18.930;2023-04-08T07:10:39;49.65;38.28;70.86;;
76217;Laerm;65010;50.190;18.930;2023-04-08T07:13:45;49.12;38.43;65.22;;
76217;Laerm;65010;50.190;18.930;2023-04-08T07:16:51;50.03;38.32;65.61;;
76217;Laerm;65010;50.190;18.930;2023-04-08T07:19:57;49.99;38.42;69.75;;
76217;Laerm;65010;50.190;18.930;2023-04-08T07:23:04;49.09;38.49;66.76;;
76217;Laerm;65010;50.190;18.930;2023-04-08T07:26:12;48.54;38.10;63.12;;
76217;Laerm;65010;50.190;18.930;2023-04-08T07:29:19;64.35;38.18;91.20;;
76217;Laerm;65010;50.190;18.930;2023-04-08T07:32:30;49.00;38.14;68.32;;
76217;Laerm;65010;50.190;18.930;2023-04-08T07:35:37;49.12;37.99;66.88;;
76217;Laerm;65010;50.190;18.930;2023-04-08T07:38:45;47.89;38.30;63.49;;
76217;Laerm;65010;50.190;18.930;2023-04-08T07:41:55;47.51;38.28;61.56;;
76217;Laerm;65010;50.190;18.930;2023-04-08T07:45:01;50.41;38.82;64.35;;
76217;Laerm;65010;50.190;18.930;2023-04-08T07:48:07;50.59;38.53;65.49;;
76217;Laerm;65010;50.190;18.930;2023-04-08T07:51:13;49.91;38.34;66.80;;
76217;Laerm;65010;50.190;18.930;2023-04-08T07:54:23;46.74;38.21;63.35;;
76217;Laerm;65010;50.190;18.930;2023-04-08T07:57:32;49.76;38.47;67.03;;
76217;Laerm;65010;50.190;18.930;2023-04-08T08:00:38;49.15;38.10;65.98;;
76217;Laerm;65010;50.190;18.930;2023-04-08T08:03:44;44.94;37.93;63.47;;
76217;Laerm;65010;50.190;18.930;2023-04-08T08:06:51;46.89;37.97;62.35;;
76217;Laerm;65010;50.190;18.930;2023-04-08T08:09:57;46.19;38.09;63.78;;
76217;Laerm;65010;50.190;18.930;2023-04-08T08:13:06;50.00;37.45;68.33;;
76217;Laerm;65010;50.190;18.930;2023-04-08T08:16:14;47.02;37.64;61.54;;
76217;Laerm;65010;50.190;18.930;2023-04-08T08:19:21;47.03;37.81;63.11;;
76217;Laerm;65010;50.190;18.930;2023-04-08T08:22:26;48.35;37.83;63.94;;
76217;Laerm;65010;50.190;18.930;2023-04-08T08:25:32;48.76;37.89;65.41;;
76217;Laerm;65010;50.190;18.930;2023-04-08T08:28:41;48.04;37.61;64.18;;
76217;Laerm;65010;50.190;18.930;2023-04-08T08:31:47;47.91;36.35;65.60;;
76217;Laerm;65010;50.190;18.930;2023-04-08T08:34:53;49.98;36.57;66.04;;
76217;Laerm;65010;50.190;18.930;2023-04-08T08:37:59;49.48;36.80;66.12;;
76217;Laerm;65010;50.190;18.930;2023-04-08T08:41:05;47.00;36.55;62.88;;
76217;Laerm;65010;50.190;18.930;2023-04-08T08:44:14;47.39;36.16;68.52;;
76217;Laerm;65010;50.190;18.930;2023-04-08T08:47:20;47.00;36.20;66.25;;
76217;Laerm;65010;50.190;18.930;2023-04-08T08:50:27;48.73;36.08;68.12;;
76217;Laerm;65010;50.190;18.930;2023-04-08T08:53:33;45.54;36.02;62.27;;
76217;Laerm;65010;50.190;18.930;2023-04-08T08:56:39;52.73;36.15;72.70;;
76217;Laerm;65010;50.190;18.930;2023-04-08T08:59:48;37.50;34.24;49.86;;
76217;Laerm;65010;50.190;18.930;2023-04-08T09:02:55;46.72;34.34;65.75;;
76217;Laerm;65010;50.190;18.930;2023-04-08T09:06:02;46.28;34.17;63.82;;
76217;Laerm;65010;50.190;18.930;2023-04-08T09:09:10;49.32;35.15;64.46;;
76217;Laerm;65010;50.190;18.930;2023-04-08T09:12:17;50.27;36.15;66.49;;
76217;Laerm;65010;50.190;18.930;2023-04-08T09:15:28;47.52;36.39;62.71;;
76217;Laerm;65010;50.190;18.930;2023-04-08T09:18:34;49.39;36.21;69.13;;
76217;Laerm;65010;50.190;18.930;2023-04-08T09:21:41;45.81;36.47;61.44;;
76217;Laerm;65010;50.190;18.930;2023-04-08T09:24:47;45.97;36.14;62.15;;
76217;Laerm;65010;50.190;18.930;2023-04-08T09:27:54;49.13;36.14;69.88;;
76217;Laerm;65010;50.190;18.930;2023-04-08T09:31:21;52.08;36.46;66.83;;
76217;Laerm;65010;50.190;18.930;2023-04-08T09:34:30;45.32;36.59;63.91;;
76217;Laerm;65010;50.190;18.930;2023-04-08T09:37:36;48.26;36.79;63.09;;
76217;Laerm;65010;50.190;18.930;2023-04-08T09:40:44;53.41;36.22;73.82;;
76217;Laerm;65010;50.190;18.930;2023-04-08T09:43:53;48.62;34.76;62.49;;
76217;Laerm;65010;50.190;18.930;2023-04-08T09:47:14;48.90;34.10;66.70;;
76217;Laerm;65010;50.190;18.930;2023-04-08T09:50:30;45.72;34.35;61.74;;
76217;Laerm;65010;50.190;18.930;2023-04-08T09:53:46;48.67;35.94;64.56;;
76217;Laerm;65010;50.190;18.930;2023-04-08T09:57:04;49.28;35.95;69.06;;
76217;Laerm;65010;50.190;18.930;2023-04-08T10:00:15;44.61;36.09;61.00;;
76217;Laerm;65010;50.190;18.930;2023-04-08T10:03:29;48.65;36.11;64.10;;
76217;Laerm;65010;50.190;18.930;2023-04-08T10:06:39;47.68;36.16;64.19;;
76217;Laerm;65010;50.190;18.930;2023-04-08T10:09:46;46.36;35.81;62.86;;
76217;Laerm;65010;50.190;18.930;2023-04-08T10:12:53;48.38;35.91;62.38;;
76217;Laerm;65010;50.190;18.930;2023-04-08T10:16:21;42.25;35.97;59.51;;
76217;Laerm;65010;50.190;18.930;2023-04-08T10:19:39;47.57;36.27;64.04;;
76217;Laerm;65010;50.190;18.930;2023-04-08T10:22:48;47.78;34.10;62.55;;
76217;Laerm;65010;50.190;18.930;2023-04-08T10:25:55;49.06;34.39;66.52;;
76217;Laerm;65010;50.190;18.930;2023-04-08T10:29:32;50.28;34.57;68.61;;
76217;Laerm;65010;50.190;18.930;2023-04-08T10:32:40;49.33;36.09;66.67;;
76217;Laerm;65010;50.190;18.930;2023-04-08T10:35:53;48.64;36.17;62.43;;
76217;Laerm;65010;50.190;18.930;2023-04-08T10:39:00;48.98;36.22;64.54;;
76217;Laerm;65010;50.190;18.930;2023-04-08T10:42:07;49.00;36.01;65.17;;
76217;Laerm;65010;50.190;18.930;2023-04-08T10:45:16;49.11;35.78;65.10;;
76217;Laerm;65010;50.190;18.930;2023-04-08T10:48:23;50.09;36.04;62.76;;
76217;Laerm;65010;50.190;18.930;2023-04-08T10:51:34;51.04;35.70;67.40;;
76217;Laerm;65010;50.190;18.930;2023-04-08T10:54:46;51.16;36.16;66.34;;
76217;Laerm;65010;50.190;18.930;2023-04-08T10:57:53;50.92;35.99;71.61;;
76217;Laerm;65010;50.190;18.930;2023-04-08T11:01:03;49.58;35.35;66.37;;
76217;Laerm;65010;50.190;18.930;2023-04-08T11:04:12;48.47;36.08;65.69;;
76217;Laerm;65010;50.190;18.930;2023-04-08T11:07:24;47.94;35.08;67.08;;
76217;Laerm;65010;50.190;18.930;2023-04-08T11:10:37;46.28;35.06;70.72;;
76217;Laerm;65010;50.190;18.930;2023-04-08T11:13:45;49.98;35.49;64.06;;
76217;Laerm;65010;50.190;18.930;2023-04-08T11:16:56;47.06;35.61;63.42;;
76217;Laerm;65010;50.190;18.930;2023-04-08T11:20:05;48.17;36.63;63.69;;
76217;Laerm;65010;50.190;18.930;2023-04-08T11:23:16;51.78;36.61;72.60;;
76217;Laerm;65010;50.190;18.930;2023-04-08T11:26:25;48.47;36.76;62.57;;
76217;Laerm;65010;50.190;18.930;2023-04-08T11:29:33;54.08;36.52;74.57;;
76217;Laerm;65010;50.190;18.930;2023-04-08T11:32:40;49.37;36.24;63.20;;
76217;Laerm;65010;50.190;18.930;2023-04-08T11:35:50;48.58;36.19;64.43;;
76217;Laerm;65010;50.190;18.930;2023-04-08T11:38:58;44.94;36.63;62.15;;
76217;Laerm;65010;50.190;18.930;2023-04-08T11:42:05;46.11;36.61;63.67;;
76217;Laerm;65010;50.190;18.930;2023-04-08T11:45:12;49.87;36.62;66.80;;
76217;Laerm;65010;50.190;18.930;2023-04-08T11:48:19;50.12;36.47;64.16;;
76217;Laerm;65010;50.190;18.930;2023-04-08T11:51:25;50.15;34.82;65.18;;
76217;Laerm;65010;50.190;18.930;2023-04-08T11:54:41;54.28;34.35;73.52;;
76217;Laerm;65010;50.190;18.930;2023-04-08T11:57:47;47.79;36.01;64.62;;
76217;Laerm;65010;50.190;18.930;2023-04-08T12:00:54;47.53;36.14;63.36;;
76217;Laerm;65010;50.190;18.930;2023-04-08T12:04:01;48.43;35.88;66.44;;
76217;Laerm;65010;50.190;18.930;2023-04-08T12:07:09;46.34;36.51;60.60;;
76217;Laerm;65010;50.190;18.930;2023-04-08T12:10:17;47.41;36.26;65.97;;
76217;Laerm;65010;50.190;18.930;2023-04-08T12:13:24;46.47;36.52;64.57;;
76217;Laerm;65010;50.190;18.930;2023-04-08T12:16:30;60.90;36.35;81.29;;
76217;Laerm;65010;50.190;18.930;2023-04-08T12:19:36;48.63;35.89;62.73;;
76217;Laerm;65010;50.190;18.930;2023-04-08T12:22:42;47.69;35.78;63.35;;
76217;Laerm;65010;50.190;18.930;2023-04-08T12:25:51;47.48;36.27;63.14;;
76217;Laerm;65010;50.190;18.930;2023-04-08T12:28:57;57.31;36.75;78.95;;
76217;Laerm;65010;50.190;18.930;2023-04-08T12:32:04;49.33;34.74;63.47;;
76217;Laerm;65010;50.190;18.930;2023-04-08T12:35:09;46.33;34.18;63.67;;
76217;Laerm;65010;50.190;18.930;2023-04-08T12:38:16;47.81;34.14;66.77;;
76217;Laerm;65010;50.190;18.930;2023-04-08T12:41:24;49.69;35.43;66.37;;
76217;Laerm;65010;50.190;18.930;2023-04-08T12:44:31;47.70;35.92;67.57;;
76217;Laerm;65010;50.190;18.930;2023-04-08T12:47:37;46.83;35.99;62.79;;
76217;Laerm;65010;50.190;18.930;2023-04-08T12:50:43;49.26;35.85;64.12;;
76217;Laerm;65010;50.190;18.930;2023-04-08T12:53:49;45.94;36.05;62.28;;
76217;Laerm;65010;50.190;18.930;2023-04-08T12:56:58;50.30;36.13;65.76;;
76217;Laerm;65010;50.190;18.930;2023-04-08T13:00:06;48.21;35.59;68.31;;
76217;Laerm;65010;50.190;18.930;2023-04-08T13:03:13;48.30;35.76;67.58;;
76217;Laerm;65010;50.190;18.930;2023-04-08T13:06:19;47.35;36.54;67.05;;
76217;Laerm;65010;50.190;18.930;2023-04-08T13:09:26;50.04;36.08;65.19;;
76217;Laerm;65010;50.190;18.930;2023-04-08T13:12:34;46.02;35.92;64.38;;
76217;Laerm;65010;50.190;18.930;2023-04-08T13:15:42;46.53;34.24;65.74;;
76217;Laerm;65010;50.190;18.930;2023-04-08T13:18:49;49.71;34.20;66.51;;
76217;Laerm;65010;50.190;18.930;2023-04-08T13:21:55;47.41;34.04;64.69;;
76217;Laerm;65010;50.190;18.930;2023-04-08T13:25:01;45.94;34.23;62.04;;
76217;Laerm;65010;50.190;18.930;2023-04-08T13:28:11;45.52;36.11;58.92;;
76217;Laerm;65010;50.190;18.930;2023-04-08T13:31:17;41.95;36.00;59.05;;
76217;Laerm;65010;50.190;18.930;2023-04-08T13:34:23;46.13;36.18;65.53;;
76217;Laerm;65010;50.190;18.930;2023-04-08T13:37:29;46.46;36.27;62.77;;
76217;Laerm;65010;50.190;18.930;2023-04-08T13:40:36;45.66;36.11;60.56;;
76217;Laerm;65010;50.190;18.930;2023-04-08T13:43:44;46.67;35.72;65.77;;
76217;Laerm;65010;50.190;18.930;2023-04-08T13:46:51;48.72;35.62;66.37;;
76217;Laerm;65010;50.190;18.930;2023-04-08T13:49:56;47.07;36.19;63.57;;
76217;Laerm;65010;50.190;18.930;2023-04-08T13:53:03;48.30;36.23;63.58;;
76217;Laerm;65010;50.190;18.930;2023-04-08T13:56:09;49.37;36.38;64.25;;
76217;Laerm;65010;50.190;18.930;2023-04-08T13:59:18;46.59;34.27;61.36;;
76217;Laerm;65010;50.190;18.930;2023-04-08T14:02:26;53.23;33.88;71.64;;
76217;Laerm;65010;50.190;18.930;2023-04-08T14:05:32;46.16;34.13;61.69;;
76217;Laerm;65010;50.190;18.930;2023-04-08T14:08:40;47.73;33.94;62.90;;
76217;Laerm;65010;50.190;18.930;2023-04-08T14:11:49;46.75;36.14;65.44;;
76217;Laerm;65010;50.190;18.930;2023-04-08T14:14:57;48.48;36.25;65.59;;
76217;Laerm;65010;50.190;18.930;2023-04-08T14:18:05;50.02;36.12;68.52;;
76217;Laerm;65010;50.190;18.930;2023-04-08T14:21:12;47.18;36.54;60.74;;
76217;Laerm;65010;50.190;18.930;2023-04-08T14:24:22;46.18;36.28;64.11;;
76217;Laerm;65010;50.190;18.930;2023-04-08T14:27:28;46.49;36.58;60.64;;
76217;Laerm;65010;50.190;18.930;2023-04-08T14:30:38;46.85;36.11;70.16;;
76217;Laerm;65010;50.190;18.930;2023-04-08T14:33:44;43.50;36.56;59.19;;
76217;Laerm;65010;50.190;18.930;2023-04-08T14:36:51;47.72;35.96;64.89;;
76217;Laerm;65010;50.190;18.930;2023-04-08T14:39:57;48.64;36.42;68.11;;
76217;Laerm;65010;50.190;18.930;2023-04-08T14:43:03;44.52;36.24;59.35;;
76217;Laerm;65010;50.190;18.930;2023-04-08T14:46:13;45.02;36.32;64.44;;
76217;Laerm;65010;50.190;18.930;2023-04-08T14:49:19;43.19;33.91;62.69;;
76217;Laerm;65010;50.190;18.930;2023-04-08T14:52:25;48.53;33.96;66.44;;
76217;Laerm;65010;50.190;18.930;2023-04-08T14:55:31;47.18;33.85;67.31;;
76217;Laerm;65010;50.190;18.930;2023-04-08T14:58:37;45.10;35.28;60.36;;
76217;Laerm;65010;50.190;18.930;2023-04-08T15:01:46;45.62;36.52;66.46;;
76217;Laerm;65010;50.190;18.930;2023-04-08T15:04:52;47.05;36.55;70.56;;
76217;Laerm;65010;50.190;18.930;2023-04-08T15:07:59;39.70;36.61;49.78;;
76217;Laerm;65010;50.190;18.930;2023-04-08T15:11:04;47.07;36.73;66.86;;
76217;Laerm;65010;50.190;18.930;2023-04-08T15:14:11;49.39;36.50;65.60;;
76217;Laerm;65010;50.190;18.930;2023-04-08T15:17:19;43.33;36.10;58.62;;
76217;Laerm;65010;50.190;18.930;2023-04-08T15:20:26;47.56;35.88;70.83;;
76217;Laerm;65010;50.190;18.930;2023-04-08T15:23:31;49.62;36.42;65.42;;
76217;Laerm;65010;50.190;18.930;2023-04-08T15:26:38;46.14;36.19;62.90;;
76217;Laerm;65010;50.190;18.930;2023-04-08T15:29:44;40.92;35.23;53.88;;
76217;Laerm;65010;50.190;18.930;2023-04-08T15:32:53;43.89;34.94;64.19;;
76217;Laerm;65010;50.190;18.930;2023-04-08T15:35:59;44.27;34.05;62.19;;
76217;Laerm;65010;50.190;18.930;2023-04-08T15:39:06;45.29;34.40;62.36;;
76217;Laerm;65010;50.190;18.930;2023-04-08T15:42:12;46.66;35.91;64.91;;
76217;Laerm;65010;50.190;18.930;2023-04-08T15:45:19;39.71;36.17;56.59;;
76217;Laerm;65010;50.190;18.930;2023-04-08T15:48:27;43.75;36.27;69.61;;
76217;Laerm;65010;50.190;18.930;2023-04-08T15:51:35;44.03;36.16;61.44;;
76217;Laerm;65010;50.190;18.930;2023-04-08T15:54:41;43.24;36.13;63.67;;
76217;Laerm;65010;50.190;18.930;2023-04-08T15:57:47;38.89;36.27;47.38;;
76217;Laerm;65010;50.190;18.930;2023-04-08T16:00:55;46.49;36.35;64.68;;
76217;Laerm;65010;50.190;18.930;2023-04-08T16:04:05;46.67;36.43;64.97;;
76217;Laerm;65010;50.190;18.930;2023-04-08T16:07:11;44.47;36.28;63.46;;
76217;Laerm;65010;50.190;18.930;2023-04-08T16:10:19;44.00;34.44;60.74;;
76217;Laerm;65010;50.190;18.930;2023-04-08T16:13:24;40.27;34.30;53.36;;
76217;Laerm;65010;50.190;18.930;2023-04-08T16:16:31;43.99;34.12;61.28;;
76217;Laerm;65010;50.190;18.930;2023-04-08T16:19:39;46.60;34.29;60.81;;
76217;Laerm;65010;50.190;18.930;2023-04-08T16:22:46;46.84;35.54;61.84;;
76217;Laerm;65010;50.190;18.930;2023-04-08T16:25:51;45.27;35.96;63.26;;
76217;Laerm;65010;50.190;18.930;2023-04-08T16:28:58;43.11;35.92;62.72;;
76217;Laerm;65010;50.190;18.930;2023-04-08T16:32:04;47.11;36.00;64.27;;
76217;Laerm;65010;50.190;18.930;2023-04-08T16:35:14;46.66;36.97;68.65;;
76217;Laerm;65010;50.190;18.930;2023-04-08T16:38:20;43.31;37.12;61.47;;
76217;Laerm;65010;50.190;18.930;2023-04-08T16:41:26;45.04;37.00;63.38;;
76217;Laerm;65010;50.190;18.930;2023-04-08T16:44:32;45.91;34.63;66.67;;
76217;Laerm;65010;50.190;18.930;2023-04-08T16:47:38;39.46;33.87;53.68;;
76217;Laerm;65010;50.190;18.930;2023-04-08T16:50:47;44.68;34.18;65.03;;
76217;Laerm;65010;50.190;18.930;2023-04-08T16:53:54;46.84;35.76;63.02;;
76217;Laerm;65010;50.190;18.930;2023-04-08T16:57:01;45.23;35.80;62.58;;
76217;Laerm;65010;50.190;18.930;2023-04-08T17:00:08;45.49;35.98;61.54;;
76217;Laerm;65010;50.190;18.930;2023-04-08T17:03:14;41.87;37.08;57.27;;
76217;Laerm;65010;50.190;18.930;2023-04-08T17:06:23;49.35;37.11;63.86;;
76217;Laerm;65010;50.190;18.930;2023-04-08T17:09:29;45.74;36.07;64.19;;
76217;Laerm;65010;50.190;18.930;2023-04-08T17:12:35;38.47;35.95;55.13;;
76217;Laerm;65010;50.190;18.930;2023-04-08T17:15:41;57.95;36.35;78.80;;